Seward, AK

4:12 AM AKDT on July 06, 2015 (GMT -0800)
Seward | | Change Station
CLOSE
Current Station
Airport
Location: Seward,
Elevation: 20 ft
Nearby Weather Stations

Elev 20 ft 60.13 °N, 149.42 °W | Updated 19 minutes ago

Overcast
Overcast
56 °F
Feels Like 56 °F
N
0
Wind Variable Wind from North

Today
High -- | Low -- °F
--% Chance of Precip.
Yesterday
High -- | Low -- °F
Precip. -- in
4:44 AM 11:19 PM
Waning Gibbous, 76% visible
Pressure 30.17 in
Visibility 8.0 miles
Clouds Overcast 1100 ft
Dew Point 53 °F
Humidity 90%
Rainfall 0.00 in
Snow Depth Not available.
UV 0 out of 12
Pollen Not available.
Air Quality Not available.
Flu Activity Not available.
METAR PAWD 061153Z AUTO 00000KT 8SM OVC011 13/12 A3017 RMK AO2 SLP215 60000 70001 T01330117 10156 20133 58003 TSNO

More Conditions Fewer Conditions

Pressure 30.17 in
Visibility 8.0 miles
Clouds Overcast 1100 ft
Dew Point 53 °F
Humidity 90%
Rainfall 0.00 in
Snow Depth Not available.
UV 0 out of 12
Pollen Not available.
Air Quality Not available.
Flu Activity Not available.
METAR PAWD 061153Z AUTO 00000KT 8SM OVC011 13/12 A3017 RMK AO2 SLP215 60000 70001 T01330117 10156 20133 58003 TSNO

More Conditions Fewer Conditions

10-Day Weather Forecast

×

Almanac

Astronomy

Jul. 06, 2015 Rise Set
Actual Time
Civil Twilight
Nautical Twilight
Astronomical Twilight
Moon
Length of Visible Light
Length of Day
Tomorrow will be .
, % of the Moon is Illuminated

Today's Extremes

State Highs State Lows

Community

WunderPhotos

Upload Photos

1,835,542 photos uploaded!

WunderBlogs® & News

Nearby

Air Quality

  Air Quality AQ Index Pollutant
Not available.

Snow Depth

Station Depth Elevation

Earthquake Activity

City Distance Mag. Time & Date
Minimum magnitude displayed is 2.5.

Coastal Water Temperatures

Place Temperature

Stations

Nearby Weather Stations

Station Location Temp. Windchill Dew Point Humidity Wind Precip. Elev Updated Type